createdAt,value
2023-03-27T00:00:39.882Z,0.00
2023-03-27T00:01:39.902Z,0.00
2023-03-27T00:02:39.983Z,0.00
2023-03-27T00:03:40.071Z,0.00
2023-03-27T00:04:39.925Z,0.00
2023-03-27T00:05:39.931Z,0.00
2023-03-27T00:06:39.944Z,0.00
2023-03-27T00:07:39.953Z,0.00
2023-03-27T00:08:39.965Z,0.00
2023-03-27T00:09:39.976Z,0.00
2023-03-27T00:10:39.982Z,0.00
2023-03-27T00:11:39.991Z,0.00
2023-03-27T00:12:40.002Z,0.00
2023-03-27T00:13:42.659Z,0.00
2023-03-27T00:14:40.028Z,0.00
2023-03-27T00:15:40.030Z,0.00
2023-03-27T00:16:40.074Z,0.00
2023-03-27T00:17:40.090Z,0.00
2023-03-27T00:18:40.059Z,0.00
2023-03-27T00:19:40.074Z,0.00
2023-03-27T00:20:40.112Z,0.00
2023-03-27T00:21:40.089Z,0.00
2023-03-27T00:22:40.101Z,0.00
2023-03-27T00:23:40.108Z,0.00
2023-03-27T00:24:40.121Z,0.00
2023-03-27T00:25:40.127Z,0.00
2023-03-27T00:26:40.135Z,0.00
2023-03-27T00:27:40.149Z,0.00
2023-03-27T00:28:40.160Z,0.00
2023-03-27T00:29:40.165Z,0.00
2023-03-27T00:30:40.198Z,0.00
2023-03-27T00:31:40.185Z,0.00
2023-03-27T00:32:40.227Z,0.00
2023-03-27T00:33:40.206Z,0.00
2023-03-27T00:34:40.213Z,0.00
2023-03-27T00:35:40.236Z,0.00
2023-03-27T00:36:40.232Z,0.00
2023-03-27T00:37:40.242Z,0.00
2023-03-27T00:38:40.254Z,0.00
2023-03-27T00:39:40.263Z,0.00
2023-03-27T00:40:40.352Z,0.00
2023-03-27T00:41:40.281Z,0.00
2023-03-27T00:42:40.297Z,0.00
2023-03-27T00:43:40.327Z,0.00
2023-03-27T00:44:40.309Z,0.00
2023-03-27T00:45:40.318Z,0.00
2023-03-27T00:46:40.394Z,0.00
2023-03-27T00:47:40.368Z,0.00
2023-03-27T00:48:40.350Z,0.00
2023-03-27T00:49:40.359Z,0.00
2023-03-27T00:50:40.373Z,0.00
2023-03-27T00:51:40.380Z,0.00
2023-03-27T00:52:40.383Z,0.00
2023-03-27T00:53:40.393Z,0.00
2023-03-27T00:54:40.449Z,0.00
2023-03-27T00:55:40.414Z,0.00
2023-03-27T00:56:40.450Z,0.00
2023-03-27T00:57:40.432Z,0.00
2023-03-27T00:58:40.443Z,0.00
2023-03-27T00:59:40.454Z,0.00
2023-03-27T01:00:40.497Z,0.00
2023-03-27T01:01:40.526Z,0.00
2023-03-27T01:02:40.590Z,0.00
2023-03-27T01:03:40.545Z,0.00
2023-03-27T01:04:40.501Z,0.00
2023-03-27T01:05:40.509Z,0.00
2023-03-27T01:06:40.514Z,0.00
2023-03-27T01:07:40.521Z,0.00
2023-03-27T01:08:40.534Z,0.00
2023-03-27T01:09:40.543Z,0.00
2023-03-27T01:10:40.556Z,0.00
2023-03-27T01:11:40.562Z,0.00
2023-03-27T01:12:40.574Z,0.00
2023-03-27T01:13:40.580Z,0.00
2023-03-27T01:14:40.595Z,0.00
2023-03-27T01:15:40.639Z,0.00
2023-03-27T01:16:40.612Z,0.00
2023-03-27T01:17:40.647Z,0.00
2023-03-27T01:18:40.633Z,0.00
2023-03-27T01:19:40.639Z,0.00
2023-03-27T01:20:40.644Z,0.00
2023-03-27T01:21:40.658Z,0.00
2023-03-27T01:22:40.666Z,0.00
2023-03-27T01:23:58.818Z,0.00
2023-03-27T01:24:40.682Z,0.00
2023-03-27T01:25:40.703Z,0.00
2023-03-27T01:26:40.698Z,0.00
2023-03-27T01:27:40.707Z,0.00
2023-03-27T01:28:40.720Z,0.00
2023-03-27T01:29:40.727Z,0.00
2023-03-27T01:30:40.736Z,0.00
2023-03-27T01:31:40.783Z,0.00
2023-03-27T01:32:40.786Z,0.00
2023-03-27T01:33:40.764Z,0.00
2023-03-27T01:34:40.775Z,0.00
2023-03-27T01:35:40.805Z,0.00
2023-03-27T01:36:40.791Z,0.00
2023-03-27T01:37:40.801Z,0.00
2023-03-27T01:38:40.810Z,0.00
2023-03-27T01:39:40.834Z,0.00
2023-03-27T01:40:40.827Z,0.00
2023-03-27T01:41:40.838Z,0.00
2023-03-27T01:42:40.874Z,0.00
2023-03-27T01:43:40.857Z,0.00
2023-03-27T01:44:44.149Z,0.00
2023-03-27T01:45:40.875Z,0.00
2023-03-27T01:46:40.904Z,0.00
2023-03-27T01:47:40.937Z,0.00
2023-03-27T01:48:40.911Z,0.00
2023-03-27T01:49:40.911Z,0.00
2023-03-27T01:50:40.923Z,0.00
2023-03-27T01:51:40.929Z,0.00
2023-03-27T01:52:40.944Z,0.00
2023-03-27T01:53:40.949Z,0.00
2023-03-27T01:54:40.960Z,0.00
2023-03-27T01:55:40.967Z,0.00
2023-03-27T01:56:40.998Z,0.00
2023-03-27T01:57:48.925Z,0.00
2023-03-27T01:58:40.992Z,0.00
2023-03-27T01:59:41.009Z,0.00
2023-03-27T02:00:52.212Z,0.00
2023-03-27T02:01:41.100Z,0.00
2023-03-27T02:02:41.077Z,0.00
2023-03-27T02:03:41.066Z,0.00
2023-03-27T02:04:41.098Z,0.00
2023-03-27T02:05:41.058Z,0.00
2023-03-27T02:06:41.072Z,0.00
2023-03-27T02:07:41.087Z,0.00
2023-03-27T02:08:41.093Z,0.00
2023-03-27T02:09:41.096Z,0.00
2023-03-27T02:10:41.123Z,0.00
2023-03-27T02:11:41.127Z,0.00
2023-03-27T02:12:41.126Z,0.00
2023-03-27T02:13:41.131Z,0.00
2023-03-27T02:14:41.140Z,0.00
2023-03-27T02:15:41.150Z,0.00
2023-03-27T02:16:41.210Z,0.00
2023-03-27T02:17:41.204Z,0.00
2023-03-27T02:18:41.179Z,0.00
2023-03-27T02:19:41.188Z,0.00
2023-03-27T02:20:41.200Z,0.00
2023-03-27T02:21:41.208Z,0.00
2023-03-27T02:22:41.217Z,0.00
2023-03-27T02:23:41.234Z,0.00
2023-03-27T02:24:41.238Z,0.00
2023-03-27T02:25:41.247Z,0.00
2023-03-27T02:26:41.252Z,0.00
2023-03-27T02:27:41.269Z,0.00
2023-03-27T02:28:41.277Z,0.00
2023-03-27T02:29:41.287Z,0.00
2023-03-27T02:30:41.293Z,0.00
2023-03-27T02:31:41.389Z,0.00
2023-03-27T02:32:41.449Z,0.00
2023-03-27T02:33:41.315Z,0.00
2023-03-27T02:34:41.327Z,0.00
2023-03-27T02:35:41.363Z,0.00
2023-03-27T02:36:41.342Z,0.00
2023-03-27T02:37:41.359Z,0.00
2023-03-27T02:38:41.398Z,0.00
2023-03-27T02:39:41.386Z,0.00
2023-03-27T02:40:41.379Z,0.00
2023-03-27T02:41:41.391Z,0.00
2023-03-27T02:42:41.402Z,0.00
2023-03-27T02:43:41.408Z,0.00
2023-03-27T02:44:47.355Z,0.00
2023-03-27T02:45:41.468Z,0.00
2023-03-27T02:46:41.437Z,0.00
2023-03-27T02:47:41.462Z,0.00
2023-03-27T02:48:41.454Z,0.00
2023-03-27T02:49:41.463Z,0.00
2023-03-27T02:50:41.473Z,0.00
2023-03-27T02:51:41.480Z,0.00
2023-03-27T02:52:41.493Z,0.00
2023-03-27T02:53:41.522Z,0.00
2023-03-27T02:54:41.510Z,0.00
2023-03-27T02:55:41.520Z,0.00
2023-03-27T02:56:41.570Z,0.00
2023-03-27T02:57:41.541Z,0.00
2023-03-27T02:58:41.544Z,0.00
2023-03-27T02:59:41.553Z,0.00
2023-03-27T03:00:41.565Z,0.00
2023-03-27T03:01:41.636Z,0.00
2023-03-27T03:02:41.669Z,0.00
2023-03-27T03:03:41.590Z,0.00
2023-03-27T03:04:41.669Z,0.00
2023-03-27T03:05:41.608Z,0.00
2023-03-27T03:06:41.614Z,0.00
2023-03-27T03:07:41.630Z,0.00
2023-03-27T03:08:41.638Z,0.00
2023-03-27T03:09:41.649Z,0.00
2023-03-27T03:10:41.649Z,0.00
2023-03-27T03:11:41.661Z,0.00
2023-03-27T03:12:41.669Z,0.00
2023-03-27T03:13:41.685Z,0.00
2023-03-27T03:14:41.686Z,0.00
2023-03-27T03:15:41.695Z,0.00
2023-03-27T03:16:41.757Z,0.00
2023-03-27T03:17:41.746Z,0.00
2023-03-27T03:18:41.745Z,0.00
2023-03-27T03:19:41.739Z,0.00
2023-03-27T03:20:41.738Z,0.00
2023-03-27T03:21:41.748Z,0.00
2023-03-27T03:22:41.757Z,0.00
2023-03-27T03:23:41.769Z,0.00
2023-03-27T03:24:42.012Z,0.00
2023-03-27T03:25:41.779Z,0.00
2023-03-27T03:26:41.790Z,0.00
2023-03-27T03:27:41.797Z,0.00
2023-03-27T03:28:41.805Z,0.00
2023-03-27T03:29:41.818Z,0.00
2023-03-27T03:30:41.926Z,0.00
2023-03-27T03:31:41.834Z,0.00
2023-03-27T03:32:41.869Z,0.00
2023-03-27T03:33:41.852Z,0.00
2023-03-27T03:34:41.864Z,0.00
2023-03-27T03:35:41.868Z,0.00
2023-03-27T03:36:41.926Z,0.00
2023-03-27T03:37:41.889Z,0.00
2023-03-27T03:38:41.893Z,0.00
2023-03-27T03:39:41.904Z,0.00
2023-03-27T03:40:41.920Z,0.00
2023-03-27T03:41:41.919Z,0.00
2023-03-27T03:42:41.928Z,0.00
2023-03-27T03:43:41.936Z,0.00
2023-03-27T03:44:41.945Z,0.00
2023-03-27T03:45:41.950Z,0.00
2023-03-27T03:46:41.962Z,0.00
2023-03-27T03:47:42.043Z,0.00
2023-03-27T03:48:41.976Z,0.00
2023-03-27T03:49:41.987Z,0.00
2023-03-27T03:50:42.007Z,0.00
2023-03-27T03:51:42.012Z,0.00
2023-03-27T03:52:42.016Z,0.00
2023-03-27T03:53:42.024Z,0.00
2023-03-27T03:54:42.028Z,0.00
2023-03-27T03:55:42.042Z,0.00
2023-03-27T03:56:42.081Z,0.00
2023-03-27T03:57:42.068Z,0.00
2023-03-27T03:58:42.065Z,0.00
2023-03-27T03:59:42.073Z,0.00
2023-03-27T04:00:42.082Z,0.00
2023-03-27T04:01:42.134Z,0.00
2023-03-27T04:02:42.161Z,0.00
2023-03-27T04:03:42.287Z,0.00
2023-03-27T04:04:42.113Z,0.00
2023-03-27T04:05:42.118Z,0.00
2023-03-27T04:06:42.128Z,0.00
2023-03-27T04:07:42.163Z,0.00
2023-03-27T04:08:42.148Z,0.00
2023-03-27T04:09:42.155Z,0.00
2023-03-27T04:10:42.162Z,0.00
2023-03-27T04:11:42.172Z,0.00
2023-03-27T04:12:42.178Z,0.00
2023-03-27T04:13:42.187Z,0.00
2023-03-27T04:14:42.194Z,0.00
2023-03-27T04:15:42.231Z,0.00
2023-03-27T04:16:42.221Z,0.00
2023-03-27T04:17:42.342Z,0.00
2023-03-27T04:18:42.464Z,0.00
2023-03-27T04:19:42.239Z,4.00
2023-03-27T04:20:42.244Z,4.00
2023-03-27T04:21:42.282Z,4.00
2023-03-27T04:22:42.258Z,0.00
2023-03-27T04:23:42.270Z,4.00
2023-03-27T04:24:42.276Z,4.00
2023-03-27T04:25:42.325Z,4.00
2023-03-27T04:26:42.293Z,4.00
2023-03-27T04:27:42.304Z,8.00
2023-03-27T04:28:42.315Z,8.00
2023-03-27T04:29:42.320Z,8.00
2023-03-27T04:30:42.330Z,8.00
2023-03-27T04:31:42.380Z,12.00
2023-03-27T04:32:42.378Z,12.00
2023-03-27T04:33:42.358Z,16.00
2023-03-27T04:34:42.377Z,16.00
2023-03-27T04:35:42.408Z,24.00
2023-03-27T04:36:42.378Z,24.00
2023-03-27T04:37:42.391Z,32.00
2023-03-27T04:38:42.397Z,36.00
2023-03-27T04:39:42.406Z,44.00
2023-03-27T04:40:42.414Z,52.00
2023-03-27T04:41:42.433Z,60.00
2023-03-27T04:42:42.489Z,72.00
2023-03-27T04:43:42.439Z,80.00
2023-03-27T04:44:42.459Z,92.00
2023-03-27T04:45:42.458Z,100.00
2023-03-27T04:46:42.541Z,108.00
2023-03-27T04:47:42.550Z,124.00
2023-03-27T04:48:42.485Z,140.00
2023-03-27T04:49:42.485Z,160.00
2023-03-27T04:50:42.496Z,176.00
2023-03-27T04:51:42.506Z,200.00
2023-03-27T04:52:42.513Z,228.00
2023-03-27T04:53:42.522Z,252.00
2023-03-27T04:54:42.527Z,280.00
2023-03-27T04:55:42.540Z,300.00
2023-03-27T04:56:42.576Z,336.00
2023-03-27T04:57:42.559Z,360.00
2023-03-27T04:58:42.570Z,380.00
2023-03-27T04:59:42.572Z,408.00
2023-03-27T05:00:42.605Z,440.00
2023-03-27T05:01:42.641Z,456.00
2023-03-27T05:02:42.619Z,484.00
2023-03-27T05:03:42.649Z,516.00
2023-03-27T05:04:42.607Z,564.00
2023-03-27T05:05:42.614Z,612.00
2023-03-27T05:06:42.622Z,632.00
2023-03-27T05:07:42.628Z,664.00
2023-03-27T05:08:42.637Z,712.00
2023-03-27T05:09:42.652Z,764.00
2023-03-27T05:10:42.656Z,824.00
2023-03-27T05:11:42.666Z,852.00
2023-03-27T05:12:42.673Z,872.00
2023-03-27T05:13:42.676Z,908.00
2023-03-27T05:14:42.683Z,964.00
2023-03-27T05:15:42.692Z,1016.00
2023-03-27T05:16:42.750Z,1056.00
2023-03-27T05:17:42.764Z,1096.00
2023-03-27T05:18:42.718Z,1144.00
2023-03-27T05:19:42.723Z,1196.00
2023-03-27T05:20:42.729Z,1248.00
2023-03-27T05:21:42.738Z,1304.00
2023-03-27T05:22:42.747Z,1360.00
2023-03-27T05:23:42.755Z,1424.00
2023-03-27T05:24:42.774Z,1472.00
2023-03-27T05:25:42.778Z,1528.00
2023-03-27T05:26:42.785Z,1580.00
2023-03-27T05:27:42.790Z,1608.00
2023-03-27T05:28:42.793Z,1648.00
2023-03-27T05:29:46.763Z,1700.00
2023-03-27T05:30:42.838Z,1740.00
2023-03-27T05:31:42.818Z,1764.00
2023-03-27T05:32:42.830Z,1792.00
2023-03-27T05:33:42.832Z,1836.00
2023-03-27T05:34:42.840Z,1880.00
2023-03-27T05:35:42.890Z,1908.00
2023-03-27T05:36:42.875Z,1948.00
2023-03-27T05:37:42.864Z,1976.00
2023-03-27T05:38:42.881Z,2016.00
2023-03-27T05:39:42.889Z,2052.00
2023-03-27T05:40:42.902Z,2088.00
2023-03-27T05:41:42.902Z,2136.00
2023-03-27T05:42:42.917Z,2180.00
2023-03-27T05:43:42.915Z,2196.00
2023-03-27T05:44:42.921Z,2208.00
2023-03-27T05:45:42.967Z,2248.00
2023-03-27T05:46:43.025Z,2288.00
2023-03-27T05:47:42.971Z,2280.00
2023-03-27T05:48:42.961Z,2304.00
2023-03-27T05:49:42.983Z,2328.00
2023-03-27T05:50:42.967Z,2364.00
2023-03-27T05:51:46.884Z,2400.00
2023-03-27T05:52:42.982Z,2444.00
2023-03-27T05:53:43.004Z,2492.00
2023-03-27T05:54:43.000Z,2544.00
2023-03-27T05:55:43.014Z,2556.00
2023-03-27T05:56:43.054Z,2556.00
2023-03-27T05:57:43.021Z,2584.00
2023-03-27T05:58:43.033Z,2596.00
2023-03-27T05:59:43.041Z,2708.00
2023-03-27T06:00:43.061Z,2840.00
2023-03-27T06:01:43.058Z,3196.00
2023-03-27T06:02:43.132Z,3504.00
2023-03-27T06:03:43.205Z,3648.00
2023-03-27T06:04:43.116Z,3648.00
2023-03-27T06:05:43.088Z,3840.00
2023-03-27T06:06:43.096Z,4032.00
2023-03-27T06:07:43.590Z,4164.00
2023-03-27T06:08:43.147Z,4664.00
2023-03-27T06:09:43.119Z,4436.00
2023-03-27T06:10:43.129Z,4516.00
2023-03-27T06:11:43.151Z,4680.00
2023-03-27T06:12:43.146Z,4792.00
2023-03-27T06:13:43.153Z,5420.00
2023-03-27T06:14:43.158Z,6176.00
2023-03-27T06:15:43.326Z,6208.00
2023-03-27T06:16:43.195Z,6368.00
2023-03-27T06:17:43.222Z,5900.00
2023-03-27T06:18:43.196Z,5100.00
2023-03-27T06:19:43.200Z,4112.00
2023-03-27T06:20:43.207Z,3552.00
2023-03-27T06:21:43.219Z,3380.00
2023-03-27T06:22:43.241Z,3316.00
2023-03-27T06:23:43.234Z,3428.00
2023-03-27T06:24:43.253Z,3420.00
2023-03-27T06:25:43.247Z,3416.00
2023-03-27T06:26:43.259Z,3468.00
2023-03-27T06:27:43.267Z,3544.00
2023-03-27T06:28:43.273Z,3664.00
2023-03-27T06:29:43.294Z,3848.00
2023-03-27T06:30:43.298Z,4012.00
2023-03-27T06:31:43.343Z,3800.00
2023-03-27T06:32:43.342Z,3788.00
2023-03-27T06:33:43.318Z,3904.00
2023-03-27T06:34:43.326Z,4056.00
2023-03-27T06:35:43.343Z,4188.00
2023-03-27T06:36:43.353Z,4608.00
2023-03-27T06:37:43.374Z,6444.00
2023-03-27T06:38:43.364Z,10064.00
2023-03-27T06:39:43.377Z,9636.00
2023-03-27T06:40:43.376Z,10288.00
2023-03-27T06:41:43.383Z,9292.00
2023-03-27T06:42:43.517Z,6048.00
2023-03-27T06:43:43.404Z,5012.00
2023-03-27T06:44:43.419Z,6240.00
2023-03-27T06:45:43.464Z,6932.00
2023-03-27T06:46:45.819Z,6008.00
2023-03-27T06:47:53.698Z,6336.00
2023-03-27T06:48:43.516Z,7960.00
2023-03-27T06:49:43.456Z,7836.00
2023-03-27T06:50:43.462Z,7164.00
2023-03-27T06:51:43.476Z,5728.00
2023-03-27T06:52:43.481Z,5832.00
2023-03-27T06:53:43.490Z,5628.00
2023-03-27T06:54:43.500Z,5340.00
2023-03-27T06:55:43.509Z,6044.00
2023-03-27T06:56:43.549Z,5704.00
2023-03-27T06:57:43.532Z,5304.00
2023-03-27T06:58:43.536Z,8668.00
2023-03-27T06:59:43.588Z,11348.00
2023-03-27T07:00:43.561Z,12320.00
2023-03-27T07:01:43.637Z,11564.00
2023-03-27T07:02:43.627Z,10436.00
2023-03-27T07:03:43.584Z,8924.00
2023-03-27T07:04:54.103Z,8404.00
2023-03-27T07:05:43.660Z,8708.00
2023-03-27T07:06:43.611Z,9668.00
2023-03-27T07:07:43.620Z,10648.00
2023-03-27T07:08:43.634Z,10956.00
2023-03-27T07:09:43.649Z,10812.00
2023-03-27T07:10:43.663Z,10784.00
2023-03-27T07:11:43.667Z,10064.00
2023-03-27T07:12:43.668Z,8712.00
2023-03-27T07:13:43.689Z,8308.00
2023-03-27T07:14:43.683Z,7856.00
2023-03-27T07:15:43.705Z,5704.00
2023-03-27T07:16:43.778Z,5848.00
2023-03-27T07:17:48.890Z,4896.00
2023-03-27T07:18:43.738Z,5736.00
2023-03-27T07:19:43.737Z,7660.00
2023-03-27T07:20:43.747Z,10076.00
2023-03-27T07:21:43.769Z,7136.00
2023-03-27T07:22:43.772Z,5608.00
2023-03-27T07:23:43.775Z,10732.00
2023-03-27T07:24:43.783Z,9000.00
2023-03-27T07:25:43.793Z,10564.00
2023-03-27T07:26:43.806Z,11040.00
2023-03-27T07:27:43.820Z,9808.00
2023-03-27T07:28:43.825Z,9432.00
2023-03-27T07:29:43.837Z,8832.00
2023-03-27T07:30:43.850Z,10500.00
2023-03-27T07:31:56.983Z,13704.00
2023-03-27T07:32:44.188Z,16576.00
2023-03-27T07:33:43.990Z,7672.00
2023-03-27T07:34:43.884Z,6856.00
2023-03-27T07:35:43.942Z,15336.00
2023-03-27T07:36:43.906Z,19392.00
2023-03-27T07:37:43.915Z,7616.00
2023-03-27T07:38:43.927Z,11260.00
2023-03-27T07:39:43.942Z,19264.00
2023-03-27T07:40:43.977Z,18272.00
2023-03-27T07:41:43.958Z,11156.00
2023-03-27T07:42:43.968Z,7880.00
2023-03-27T07:43:43.980Z,6408.00
2023-03-27T07:44:43.992Z,6168.00
2023-03-27T07:45:44.034Z,8716.00
2023-03-27T07:46:44.013Z,13564.00
2023-03-27T07:47:44.038Z,16704.00
2023-03-27T07:48:44.044Z,11840.00
2023-03-27T07:49:44.044Z,13656.00
2023-03-27T07:50:44.056Z,17696.00
2023-03-27T07:51:44.068Z,14028.00
2023-03-27T07:52:44.076Z,11600.00
2023-03-27T07:53:44.090Z,10368.00
2023-03-27T07:54:44.101Z,8924.00
2023-03-27T07:55:44.110Z,10136.00
2023-03-27T07:56:44.219Z,13128.00
2023-03-27T07:58:44.179Z,9820.00
2023-03-27T07:59:44.154Z,9592.00
2023-03-27T08:00:44.164Z,11852.00
2023-03-27T08:01:44.178Z,13520.00
2023-03-27T08:02:44.228Z,15428.00
2023-03-27T08:03:44.313Z,15308.00
2023-03-27T08:04:44.316Z,14908.00
2023-03-27T08:05:44.236Z,15308.00
2023-03-27T08:06:44.236Z,15824.00
2023-03-27T08:07:44.240Z,13068.00
2023-03-27T08:08:44.252Z,9868.00
2023-03-27T08:09:44.272Z,9212.00
2023-03-27T08:10:44.275Z,10756.00
2023-03-27T08:11:44.302Z,11492.00
2023-03-27T08:12:44.295Z,10728.00
2023-03-27T08:13:44.305Z,12116.00
2023-03-27T08:14:44.320Z,10692.00
2023-03-27T08:15:44.333Z,9348.00
2023-03-27T08:16:44.371Z,9456.00
2023-03-27T08:17:44.460Z,9244.00
2023-03-27T08:18:44.368Z,12032.00
2023-03-27T08:19:44.369Z,11548.00
2023-03-27T08:20:44.382Z,7928.00
2023-03-27T08:21:44.395Z,9788.00
2023-03-27T08:22:44.402Z,10484.00
2023-03-27T08:23:44.415Z,13160.00
2023-03-27T08:24:44.423Z,14356.00
2023-03-27T08:25:44.440Z,15988.00
2023-03-27T08:26:44.453Z,16760.00
2023-03-27T08:27:44.458Z,17984.00
2023-03-27T08:28:44.471Z,13208.00
2023-03-27T08:29:44.478Z,9036.00
2023-03-27T08:30:44.553Z,11004.00
2023-03-27T08:31:44.503Z,11744.00
2023-03-27T08:32:44.618Z,10268.00
2023-03-27T08:33:44.540Z,10308.00
2023-03-27T08:34:44.534Z,11056.00
2023-03-27T08:35:44.571Z,13492.00
2023-03-27T08:36:44.561Z,15432.00
2023-03-27T08:37:44.567Z,15048.00
2023-03-27T08:38:44.579Z,15632.00
2023-03-27T08:39:44.592Z,17108.00
2023-03-27T08:40:44.602Z,18784.00
2023-03-27T08:41:44.626Z,20000.00
2023-03-27T08:42:44.627Z,19040.00
2023-03-27T08:43:44.640Z,17664.00
2023-03-27T08:44:44.648Z,15988.00
2023-03-27T08:45:44.663Z,13072.00
2023-03-27T08:46:44.725Z,13420.00
2023-03-27T08:47:44.746Z,13348.00
2023-03-27T08:48:44.749Z,13488.00
2023-03-27T08:49:44.707Z,16348.00
2023-03-27T08:50:44.719Z,16468.00
2023-03-27T08:51:44.730Z,14796.00
2023-03-27T08:52:44.742Z,11752.00
2023-03-27T08:53:44.763Z,10308.00
2023-03-27T08:54:44.776Z,11812.00
2023-03-27T08:55:44.791Z,16772.00
2023-03-27T08:56:44.820Z,19328.00
2023-03-27T08:57:44.805Z,17248.00
2023-03-27T08:58:44.821Z,15456.00
2023-03-27T08:59:44.860Z,10628.00
2023-03-27T09:00:44.846Z,11448.00
2023-03-27T09:01:44.854Z,9944.00
2023-03-27T09:02:44.968Z,11364.00
2023-03-27T09:03:44.984Z,15584.00
2023-03-27T09:04:44.883Z,17728.00
2023-03-27T09:05:44.894Z,15348.00
2023-03-27T09:06:44.910Z,18496.00
2023-03-27T09:07:44.920Z,20512.00
2023-03-27T09:08:44.930Z,19200.00
2023-03-27T09:09:44.946Z,18688.00
2023-03-27T09:10:44.956Z,16340.00
2023-03-27T09:11:44.966Z,15724.00
2023-03-27T09:12:44.978Z,14148.00
2023-03-27T09:13:44.993Z,14496.00
2023-03-27T09:14:45.000Z,16720.00
2023-03-27T09:15:45.042Z,15504.00
2023-03-27T09:16:46.706Z,15728.00
2023-03-27T09:17:45.095Z,17984.00
2023-03-27T09:18:45.048Z,19328.00
2023-03-27T09:19:45.062Z,17568.00
2023-03-27T09:20:45.076Z,18240.00
2023-03-27T09:21:45.087Z,16192.00
2023-03-27T09:22:45.097Z,11776.00
2023-03-27T09:23:45.108Z,10856.00
2023-03-27T09:24:45.127Z,10496.00
2023-03-27T09:25:45.132Z,9560.00
2023-03-27T09:26:45.414Z,11740.00
2023-03-27T09:27:45.152Z,14548.00
2023-03-27T09:28:46.021Z,12912.00
2023-03-27T09:29:45.183Z,11224.00
2023-03-27T09:30:45.193Z,11444.00
2023-03-27T09:31:45.241Z,12516.00
2023-03-27T09:32:45.244Z,14712.00
2023-03-27T09:33:45.228Z,16192.00
2023-03-27T09:34:45.242Z,14724.00
2023-03-27T09:35:45.274Z,11752.00
2023-03-27T09:36:45.261Z,9816.00
2023-03-27T09:37:45.274Z,8692.00
2023-03-27T09:38:45.287Z,8704.00
2023-03-27T09:39:45.297Z,7872.00
2023-03-27T09:40:45.307Z,7472.00
2023-03-27T09:41:45.337Z,9096.00
2023-03-27T09:42:45.333Z,11592.00
2023-03-27T09:43:45.348Z,14668.00
2023-03-27T09:44:45.357Z,15824.00
2023-03-27T09:45:45.376Z,15012.00
2023-03-27T09:46:45.401Z,16768.00
2023-03-27T09:47:45.427Z,21312.00
2023-03-27T09:48:45.400Z,22240.00
2023-03-27T09:49:45.428Z,19808.00
2023-03-27T09:50:45.426Z,17248.00
2023-03-27T09:51:45.437Z,13644.00
2023-03-27T09:52:45.454Z,10308.00
2023-03-27T09:53:45.458Z,11728.00
2023-03-27T09:54:45.475Z,13720.00
2023-03-27T09:55:45.492Z,13564.00
2023-03-27T09:56:45.567Z,10180.00
2023-03-27T09:57:45.511Z,8976.00
2023-03-27T09:58:45.522Z,10536.00
2023-03-27T09:59:45.534Z,13132.00
2023-03-27T10:00:45.577Z,14908.00
2023-03-27T10:01:45.561Z,14300.00
2023-03-27T10:02:45.607Z,13140.00
2023-03-27T10:03:45.646Z,13316.00
2023-03-27T10:04:45.605Z,13188.00
2023-03-27T10:05:45.604Z,12460.00
2023-03-27T10:06:45.615Z,12224.00
2023-03-27T10:07:45.631Z,12792.00
2023-03-27T10:08:45.640Z,13892.00
2023-03-27T10:09:45.655Z,14476.00
2023-03-27T10:10:45.668Z,14964.00
2023-03-27T10:11:45.677Z,16308.00
2023-03-27T10:12:45.688Z,18368.00
2023-03-27T10:13:45.701Z,20256.00
2023-03-27T10:14:45.720Z,20992.00
2023-03-27T10:15:45.730Z,20352.00
2023-03-27T10:16:45.759Z,17664.00
2023-03-27T10:17:45.822Z,15996.00
2023-03-27T10:18:45.766Z,14860.00
2023-03-27T10:19:45.773Z,16032.00
2023-03-27T10:20:45.785Z,17216.00
2023-03-27T10:21:45.813Z,17312.00
2023-03-27T10:22:45.817Z,16376.00
2023-03-27T10:23:45.889Z,13628.00
2023-03-27T10:24:46.176Z,11612.00
2023-03-27T10:25:45.847Z,13824.00
2023-03-27T10:26:45.869Z,13052.00
2023-03-27T10:27:45.875Z,10224.00
2023-03-27T10:28:45.884Z,9348.00
2023-03-27T10:29:45.899Z,11008.00
2023-03-27T10:30:45.908Z,12120.00
2023-03-27T10:31:45.953Z,13540.00
2023-03-27T10:32:45.975Z,14984.00
2023-03-27T10:33:45.947Z,12400.00
2023-03-27T10:34:45.960Z,8680.00
2023-03-27T10:35:46.019Z,8592.00
2023-03-27T10:36:45.987Z,8348.00
2023-03-27T10:37:49.877Z,8052.00
2023-03-27T10:38:46.012Z,8012.00
2023-03-27T10:39:46.020Z,8568.00
2023-03-27T10:40:46.034Z,9156.00
2023-03-27T10:41:46.048Z,8904.00
2023-03-27T10:42:46.061Z,9296.00
2023-03-27T10:43:46.078Z,12352.00
2023-03-27T10:44:46.086Z,14940.00
2023-03-27T10:45:46.128Z,16624.00
2023-03-27T10:46:46.109Z,17824.00
2023-03-27T10:47:46.186Z,17824.00
2023-03-27T10:48:46.155Z,14892.00
2023-03-27T10:49:46.146Z,11952.00
2023-03-27T10:50:46.154Z,8868.00
2023-03-27T10:51:47.030Z,8624.00
2023-03-27T10:52:46.231Z,8508.00
2023-03-27T10:53:46.308Z,9672.00
2023-03-27T10:54:46.211Z,13476.00
2023-03-27T10:55:46.223Z,16560.00
2023-03-27T10:56:46.272Z,16576.00
2023-03-27T10:57:46.361Z,15432.00
2023-03-27T10:58:46.272Z,14600.00
2023-03-27T10:59:46.265Z,15684.00
2023-03-27T11:00:46.283Z,17760.00
2023-03-27T11:01:46.332Z,18272.00
2023-03-27T11:02:46.333Z,15312.00
2023-03-27T11:03:46.354Z,15552.00
2023-03-27T11:04:46.331Z,17088.00
2023-03-27T11:05:46.337Z,18752.00
2023-03-27T11:06:46.349Z,16320.00
2023-03-27T11:07:46.359Z,12188.00
2023-03-27T11:08:46.373Z,11412.00
2023-03-27T11:09:46.383Z,12376.00
2023-03-27T11:10:46.399Z,13628.00
2023-03-27T11:11:46.409Z,13704.00
2023-03-27T11:12:46.422Z,13600.00
2023-03-27T11:13:46.466Z,11800.00
2023-03-27T11:14:46.448Z,11728.00
2023-03-27T11:15:46.463Z,9908.00
2023-03-27T11:16:46.520Z,9792.00
2023-03-27T11:17:46.528Z,8864.00
2023-03-27T11:18:46.497Z,9940.00
2023-03-27T11:19:46.511Z,13548.00
2023-03-27T11:20:46.526Z,17856.00
2023-03-27T11:21:46.535Z,19136.00
2023-03-27T11:22:46.543Z,17216.00
2023-03-27T11:23:46.558Z,17632.00
2023-03-27T11:24:46.572Z,17888.00
2023-03-27T11:25:46.601Z,16972.00
2023-03-27T11:26:46.596Z,15372.00
2023-03-27T11:27:46.610Z,14392.00
2023-03-27T11:28:46.633Z,13276.00
2023-03-27T11:29:46.637Z,12856.00
2023-03-27T11:30:46.681Z,13580.00
2023-03-27T11:31:46.837Z,13536.00
2023-03-27T11:32:46.722Z,12660.00
2023-03-27T11:33:46.687Z,12784.00
2023-03-27T11:34:46.698Z,13364.00
2023-03-27T11:35:46.750Z,12284.00
2023-03-27T11:36:46.745Z,10800.00
2023-03-27T11:37:46.745Z,9668.00
2023-03-27T11:38:46.752Z,8184.00
2023-03-27T11:39:46.767Z,7572.00
2023-03-27T11:40:46.777Z,5908.00
2023-03-27T11:41:46.789Z,6128.00
2023-03-27T11:42:46.805Z,5976.00
2023-03-27T11:43:46.817Z,5916.00
2023-03-27T11:44:46.827Z,5836.00
2023-03-27T11:45:46.843Z,5852.00
2023-03-27T11:46:46.890Z,5892.00
2023-03-27T11:47:46.897Z,5984.00
2023-03-27T11:48:46.880Z,6124.00
2023-03-27T11:49:46.892Z,6312.00
2023-03-27T11:50:46.908Z,6524.00
2023-03-27T11:51:46.924Z,6696.00
2023-03-27T11:52:46.950Z,6852.00
2023-03-27T11:53:46.959Z,7028.00
2023-03-27T11:54:46.962Z,7204.00
2023-03-27T11:55:46.969Z,7312.00
2023-03-27T11:56:47.038Z,7408.00
2023-03-27T11:57:46.990Z,7756.00
2023-03-27T11:58:47.003Z,8548.00
2023-03-27T11:59:47.014Z,9480.00
2023-03-27T12:00:47.027Z,10580.00
2023-03-27T12:01:47.067Z,11800.00
2023-03-27T12:02:47.162Z,13376.00
2023-03-27T12:03:47.123Z,15608.00
2023-03-27T12:04:47.076Z,18880.00
2023-03-27T12:05:47.117Z,21440.00
2023-03-27T12:06:47.100Z,23616.00
2023-03-27T12:07:48.122Z,23200.00
2023-03-27T12:08:47.131Z,18944.00
2023-03-27T12:09:47.138Z,16288.00
2023-03-27T12:10:47.168Z,12828.00
2023-03-27T12:11:47.167Z,9644.00
2023-03-27T12:12:47.186Z,8608.00
2023-03-27T12:13:49.980Z,8908.00
2023-03-27T12:14:47.196Z,9300.00
2023-03-27T12:15:47.212Z,8132.00
2023-03-27T12:16:47.254Z,6876.00
2023-03-27T12:17:47.281Z,5736.00
2023-03-27T12:18:59.480Z,5072.00
2023-03-27T12:19:47.265Z,4792.00
2023-03-27T12:20:52.909Z,4776.00
2023-03-27T12:21:47.287Z,5008.00
2023-03-27T12:22:47.307Z,5156.00
2023-03-27T12:23:47.314Z,5184.00
2023-03-27T12:24:58.940Z,4908.00
2023-03-27T12:25:47.342Z,4604.00
2023-03-27T12:26:47.362Z,4952.00